Time;durP1;ratioP1;P1;durP2;ratioP2;P2;SDS_P1;SDS_P2;PMS_P1;PMS_P2;Temp;Humidity;BMP_temperature;BMP_pressure;BME280_temperature;BME280_humidity;BME280_pressure;Samples;Min_cycle;Max_cycle;Signal;HPM_P1;HPM_P2
2023/05/27 00:02:21;;;;;;;12.15;3.60;;;9.80;99.90;;;;;;5132541;27;20043;-60
2023/05/27 00:04:47;;;;;;;15.93;3.80;;;9.70;99.90;;;;;;5130674;27;20603;-59
2023/05/27 00:07:13;;;;;;;15.43;3.40;;;9.70;99.90;;;;;;5132372;27;20043;-59
2023/05/27 00:09:38;;;;;;;14.20;4.88;;;9.70;99.90;;;;;;5131480;27;20038;-58
2023/05/27 00:12:04;;;;;;;17.08;3.78;;;9.70;99.90;;;;;;5132193;27;20359;-59
2023/05/27 00:14:30;;;;;;;15.27;4.00;;;9.70;99.90;;;;;;5131596;27;20031;-59
2023/05/27 00:16:56;;;;;;;18.38;5.38;;;9.60;99.90;;;;;;5112946;27;20103;-59
2023/05/27 00:19:23;;;;;;;16.77;5.10;;;9.60;99.90;;;;;;5131438;27;20074;-59
2023/05/27 00:21:52;;;;;;;15.65;4.47;;;9.60;99.90;;;;;;5131389;27;20035;-58
2023/05/27 00:24:18;;;;;;;15.73;4.15;;;9.50;99.90;;;;;;5112744;27;20039;-60
2023/05/27 00:26:44;;;;;;;19.42;5.25;;;9.50;99.90;;;;;;5130243;27;20087;-58
2023/05/27 00:29:09;;;;;;;14.40;4.70;;;9.40;99.90;;;;;;5130123;27;20134;-59
2023/05/27 00:31:35;;;;;;;17.33;5.88;;;9.40;99.90;;;;;;5132981;27;20038;-58
2023/05/27 00:34:01;;;;;;;13.25;4.32;;;9.40;99.90;;;;;;5132521;27;20035;-60
2023/05/27 00:36:27;;;;;;;19.33;4.70;;;9.40;99.90;;;;;;5114135;27;20103;-59
2023/05/27 00:38:52;;;;;;;18.10;6.03;;;9.40;99.90;;;;;;5132513;27;20545;-59
2023/05/27 00:41:19;;;;;;;16.27;5.72;;;9.30;99.90;;;;;;5132748;27;20039;-58
2023/05/27 00:43:45;;;;;;;19.15;4.75;;;9.40;99.90;;;;;;5132173;27;20689;-59
2023/05/27 00:46:11;;;;;;;19.13;4.28;;;9.30;99.90;;;;;;5131002;27;20179;-59
2023/05/27 00:48:36;;;;;;;14.85;4.05;;;9.30;99.90;;;;;;5132104;27;20051;-60
2023/05/27 00:51:02;;;;;;;16.30;4.03;;;9.20;99.90;;;;;;5132415;27;20492;-60
2023/05/27 00:53:41;;;;;;;19.58;3.95;;;9.20;99.90;;;;;;5113327;27;20050;-59
2023/05/27 00:56:12;;;;;;;13.80;4.60;;;9.20;99.90;;;;;;5132364;27;20482;-59
2023/05/27 00:58:38;;;;;;;12.93;4.15;;;9.10;99.90;;;;;;5130949;27;20039;-60
2023/05/27 01:01:04;;;;;;;20.05;4.75;;;9.10;99.90;;;;;;5132456;27;20031;-60
2023/05/27 01:03:35;;;;;;;15.88;4.68;;;9.10;99.90;;;;;;5132040;27;20039;-57
2023/05/27 01:06:49;;;;;;;22.23;4.72;;;9.00;99.90;;;;;;5114192;27;20038;-59
2023/05/27 01:09:28;;;;;;;14.88;5.65;;;9.00;99.90;;;;;;5092152;27;20051;-59
2023/05/27 01:12:18;;;;;;;14.05;4.05;;;9.00;99.90;;;;;;5132290;27;20486;-58
2023/05/27 01:14:45;;;;;;;17.13;4.22;;;8.90;99.90;;;;;;5131528;27;20394;-59
2023/05/27 01:17:12;;;;;;;16.45;5.32;;;8.90;99.90;;;;;;5131960;27;20039;-60
2023/05/27 01:19:44;;;;;;;13.68;3.70;;;8.90;99.90;;;;;;5131857;27;20042;-59
2023/05/27 01:22:14;;;;;;;16.77;4.13;;;8.90;99.90;;;;;;5131925;27;20035;-60
2023/05/27 01:24:42;;;;;;;18.80;4.10;;;8.80;99.90;;;;;;5130532;27;20401;-60
2023/05/27 01:27:12;;;;;;;17.45;4.10;;;8.90;99.90;;;;;;5131790;27;20506;-59
2023/05/27 01:29:40;;;;;;;15.43;3.97;;;8.80;99.90;;;;;;5113079;27;20039;-58
2023/05/27 01:32:43;;;;;;;15.32;4.05;;;8.80;99.90;;;;;;5131397;27;20073;-59
2023/05/27 01:35:17;;;;;;;11.50;4.10;;;8.70;99.90;;;;;;5098711;27;20078;-59
2023/05/27 01:37:45;;;;;;;13.98;4.15;;;8.60;99.90;;;;;;5131333;27;20035;-58
2023/05/27 01:40:13;;;;;;;16.58;4.75;;;8.60;99.90;;;;;;5131296;27;20122;-58
2023/05/27 01:42:40;;;;;;;17.77;5.80;;;8.60;99.90;;;;;;5131312;27;20489;-59
2023/05/27 01:45:08;;;;;;;18.60;4.93;;;8.60;99.90;;;;;;5131007;27;20035;-59
2023/05/27 01:47:34;;;;;;;18.42;4.60;;;8.60;99.90;;;;;;5131043;27;20454;-60
2023/05/27 01:50:00;;;;;;;17.15;5.50;;;8.50;99.90;;;;;;5131524;27;20039;-59
2023/05/27 01:52:26;;;;;;;15.45;4.80;;;8.50;99.90;;;;;;5131571;27;20039;-59
2023/05/27 01:54:52;;;;;;;15.60;6.10;;;8.50;99.90;;;;;;5131338;27;20130;-58
2023/05/27 01:57:18;;;;;;;15.77;4.95;;;8.50;99.90;;;;;;5131357;27;20564;-58
2023/05/27 01:59:44;;;;;;;21.50;5.35;;;8.50;99.90;;;;;;5131474;27;20031;-59
2023/05/27 02:02:10;;;;;;;16.42;6.18;;;8.50;99.90;;;;;;5131219;27;20039;-60
2023/05/27 02:04:36;;;;;;;19.10;5.47;;;8.50;99.90;;;;;;5130684;27;20070;-59
2023/05/27 02:07:03;;;;;;;14.50;4.50;;;8.40;99.90;;;;;;5131015;27;20036;-59
2023/05/27 02:09:29;;;;;;;17.90;4.97;;;8.40;99.90;;;;;;5131169;27;20035;-58
2023/05/27 02:11:54;;;;;;;18.23;4.60;;;8.40;99.90;;;;;;5131159;27;20039;-59
2023/05/27 02:14:20;;;;;;;19.38;4.53;;;8.40;99.90;;;;;;5130366;27;20046;-58
2023/05/27 02:16:49;;;;;;;17.65;6.65;;;8.40;99.90;;;;;;5131091;27;20039;-59
2023/05/27 02:19:15;;;;;;;15.77;5.07;;;8.40;99.90;;;;;;5131067;28;20119;-60
2023/05/27 02:21:41;;;;;;;22.10;5.13;;;8.40;99.90;;;;;;5131142;28;20379;-59
2023/05/27 02:24:07;;;;;;;13.68;5.20;;;8.30;99.90;;;;;;5130940;28;20107;-59
2023/05/27 02:26:33;;;;;;;16.25;6.43;;;8.30;99.90;;;;;;5112750;28;20110;-60
2023/05/27 02:28:58;;;;;;;19.20;5.72;;;8.30;99.90;;;;;;5131112;28;20096;-59
2023/05/27 02:31:24;;;;;;;22.70;5.47;;;8.40;99.90;;;;;;5112345;28;20463;-59
2023/05/27 02:33:50;;;;;;;15.25;5.43;;;8.30;99.90;;;;;;5131774;28;20035;-58
2023/05/27 02:36:16;;;;;;;21.10;4.93;;;8.30;99.90;;;;;;5131662;28;20046;-59
2023/05/27 02:38:41;;;;;;;17.33;7.35;;;8.20;99.90;;;;;;5131147;28;20047;-59
2023/05/27 02:41:07;;;;;;;19.00;5.32;;;8.30;99.90;;;;;;5130722;28;20039;-59
2023/05/27 02:43:33;;;;;;;17.65;5.70;;;8.30;99.90;;;;;;5130544;28;20046;-58
2023/05/27 02:45:58;;;;;;;15.52;4.57;;;8.20;99.90;;;;;;5130762;28;20063;-59
2023/05/27 02:48:24;;;;;;;17.00;6.90;;;8.20;99.90;;;;;;5130446;28;20123;-57
2023/05/27 02:50:49;;;;;;;15.23;5.00;;;8.10;99.90;;;;;;5132953;27;20459;-59
2023/05/27 02:53:15;;;;;;;16.60;5.30;;;8.20;99.90;;;;;;5134944;27;20083;-58
2023/05/27 02:55:41;;;;;;;16.08;6.57;;;8.10;99.90;;;;;;5134591;27;20107;-59
2023/05/27 02:58:07;;;;;;;17.77;5.65;;;8.10;99.90;;;;;;5134523;27;20031;-59
2023/05/27 03:00:34;;;;;;;18.33;4.80;;;8.10;99.90;;;;;;5134376;27;20039;-59
2023/05/27 03:03:00;;;;;;;22.02;5.25;;;8.00;99.90;;;;;;5134628;27;20363;-60
2023/05/27 03:05:25;;;;;;;22.75;7.45;;;8.00;99.90;;;;;;5134174;27;20041;-58
2023/05/27 03:07:51;;;;;;;20.17;4.80;;;8.00;99.90;;;;;;5134525;27;20042;-60
2023/05/27 03:10:17;;;;;;;14.50;4.47;;;8.00;99.90;;;;;;5134276;27;20039;-59
2023/05/27 03:12:43;;;;;;;16.38;5.13;;;7.90;99.90;;;;;;5134139;27;20057;-59
2023/05/27 03:15:09;;;;;;;13.35;4.85;;;7.90;99.90;;;;;;5116049;27;20470;-60
2023/05/27 03:17:37;;;;;;;14.95;4.85;;;7.90;99.90;;;;;;5134286;27;20074;-59
2023/05/27 03:20:05;;;;;;;17.60;4.93;;;7.80;99.90;;;;;;5134272;27;20046;-58
2023/05/27 03:22:31;;;;;;;16.48;4.78;;;7.80;99.90;;;;;;5134175;27;20043;-59
2023/05/27 03:24:57;;;;;;;21.60;5.60;;;7.80;99.90;;;;;;5134109;27;20042;-59
2023/05/27 03:27:23;;;;;;;18.88;4.93;;;7.70;99.90;;;;;;5134157;27;20032;-57
2023/05/27 03:29:48;;;;;;;21.45;5.15;;;7.80;99.90;;;;;;5115122;27;20092;-60
2023/05/27 03:32:14;;;;;;;16.08;4.82;;;7.70;99.90;;;;;;5134093;27;20076;-59
2023/05/27 03:34:40;;;;;;;21.75;4.82;;;7.70;99.90;;;;;;5134181;27;20513;-60
2023/05/27 03:37:06;;;;;;;11.20;4.63;;;7.70;99.90;;;;;;5134224;27;20043;-60
2023/05/27 03:39:31;;;;;;;20.33;4.80;;;7.70;99.90;;;;;;5134783;27;20127;-59
2023/05/27 03:41:58;;;;;;;15.38;5.07;;;7.60;99.90;;;;;;5134510;27;20405;-58
2023/05/27 03:44:24;;;;;;;20.52;5.10;;;7.70;99.90;;;;;;5133238;27;20043;-60
2023/05/27 03:46:49;;;;;;;16.42;4.88;;;7.70;99.90;;;;;;5114937;27;20493;-59
2023/05/27 03:49:16;;;;;;;20.55;4.95;;;7.70;99.90;;;;;;5133866;27;20488;-58
2023/05/27 03:51:42;;;;;;;14.77;4.82;;;7.70;99.90;;;;;;5115146;27;20114;-59
2023/05/27 03:54:07;;;;;;;20.15;4.80;;;7.80;99.90;;;;;;5134060;27;20439;-57
2023/05/27 03:56:33;;;;;;;17.98;5.53;;;7.80;99.90;;;;;;5133609;27;20126;-59
2023/05/27 03:58:59;;;;;;;22.08;8.05;;;7.80;99.90;;;;;;5133551;27;20705;-60
2023/05/27 04:01:24;;;;;;;17.92;5.05;;;7.80;99.90;;;;;;5132510;27;20482;-59
2023/05/27 04:03:50;;;;;;;18.95;4.82;;;7.90;99.90;;;;;;5133276;27;20466;-59
2023/05/27 04:06:16;;;;;;;21.20;5.68;;;7.80;99.90;;;;;;5133358;27;20103;-59
2023/05/27 04:08:42;;;;;;;12.75;5.03;;;7.80;99.90;;;;;;5132327;27;20038;-60
2023/05/27 04:11:14;;;;;;;18.08;5.10;;;7.90;99.90;;;;;;5133135;27;20047;-59
2023/05/27 04:13:40;;;;;;;13.88;4.30;;;7.90;99.90;;;;;;5113287;27;20393;-58
2023/05/27 04:16:07;;;;;;;15.95;4.90;;;7.90;99.90;;;;;;5133302;27;20031;-58
2023/05/27 04:18:33;;;;;;;13.43;4.50;;;8.00;99.90;;;;;;5133325;27;20050;-58
2023/05/27 04:20:59;;;;;;;14.73;4.32;;;8.00;99.90;;;;;;5133102;27;20091;-60
2023/05/27 04:23:25;;;;;;;19.13;5.07;;;8.00;99.90;;;;;;5133038;27;20592;-58
2023/05/27 04:25:52;;;;;;;16.67;4.75;;;8.00;99.90;;;;;;5133096;27;20173;-59
2023/05/27 04:28:18;;;;;;;17.52;4.72;;;8.00;99.90;;;;;;5132656;27;20114;-60
2023/05/27 04:30:45;;;;;;;18.30;4.05;;;8.00;99.90;;;;;;5114348;27;20069;-59
2023/05/27 04:33:13;;;;;;;22.77;4.85;;;8.10;99.90;;;;;;5131774;27;20414;-59
2023/05/27 04:35:43;;;;;;;16.77;4.65;;;8.10;99.90;;;;;;5115171;27;20470;-59
2023/05/27 04:38:10;;;;;;;17.25;4.57;;;8.10;99.90;;;;;;5133143;27;20493;-58
2023/05/27 04:40:36;;;;;;;19.35;5.05;;;8.20;99.90;;;;;;5113911;27;20047;-59
2023/05/27 04:43:02;;;;;;;18.48;7.15;;;8.20;99.90;;;;;;5132322;27;20031;-59
2023/05/27 04:45:29;;;;;;;17.65;4.90;;;8.30;99.90;;;;;;5113794;27;20493;-59
2023/05/27 04:47:55;;;;;;;19.85;5.55;;;8.30;99.90;;;;;;5114386;27;20055;-59
2023/05/27 04:50:21;;;;;;;20.63;5.38;;;8.30;99.90;;;;;;5133024;27;20047;-59
2023/05/27 04:52:47;;;;;;;17.85;4.53;;;8.40;99.90;;;;;;5132700;27;20642;-59
2023/05/27 04:55:13;;;;;;;16.40;5.28;;;8.40;99.90;;;;;;5131988;27;20054;-59
2023/05/27 04:57:40;;;;;;;19.73;5.20;;;8.40;99.90;;;;;;5132501;27;20122;-60
2023/05/27 05:02:38;;;;;;;21.63;4.85;;;8.40;99.90;;;;;;5131024;27;20050;-59
2023/05/27 05:05:06;;;;;;;18.48;4.60;;;8.50;99.90;;;;;;5131854;27;20051;-59
2023/05/27 05:07:33;;;;;;;19.77;6.57;;;8.50;99.90;;;;;;5132276;27;20077;-59
2023/05/27 05:09:59;;;;;;;21.70;5.03;;;8.60;99.90;;;;;;5132099;27;20043;-59
2023/05/27 05:12:25;;;;;;;20.15;5.05;;;8.60;99.90;;;;;;5131447;27;20042;-59
2023/05/27 05:14:52;;;;;;;17.45;5.10;;;8.60;99.90;;;;;;5131865;27;20039;-59
2023/05/27 05:17:18;;;;;;;18.58;4.63;;;8.70;99.90;;;;;;5132393;27;20088;-58
2023/05/27 05:19:45;;;;;;;19.55;4.95;;;8.70;99.90;;;;;;5131143;27;20035;-58
2023/05/27 05:22:13;;;;;;;17.48;6.55;;;8.80;99.90;;;;;;5113486;27;20291;-59
2023/05/27 05:24:39;;;;;;;17.83;5.47;;;8.80;99.90;;;;;;5130952;27;20043;-60
2023/05/27 05:27:08;;;;;;;19.02;5.45;;;8.90;99.90;;;;;;5131923;27;20035;-59
2023/05/27 05:29:34;;;;;;;19.77;5.18;;;8.90;99.90;;;;;;5132554;27;20057;-58
2023/05/27 05:31:59;;;;;;;17.45;5.30;;;8.90;99.90;;;;;;5132004;27;20043;-60
2023/05/27 05:34:25;;;;;;;16.85;5.95;;;8.90;99.90;;;;;;5131442;27;20031;-60
2023/05/27 05:36:50;;;;;;;19.08;5.40;;;9.00;99.90;;;;;;5131647;27;20531;-60
2023/05/27 05:39:16;;;;;;;18.60;5.25;;;9.00;99.90;;;;;;5131693;27;20471;-59
2023/05/27 05:41:42;;;;;;;12.45;4.57;;;9.10;99.90;;;;;;5131864;27;20402;-59
2023/05/27 05:44:08;;;;;;;20.58;5.65;;;9.20;99.90;;;;;;5131283;27;20038;-59
2023/05/27 05:46:33;;;;;;;15.85;5.07;;;9.30;99.90;;;;;;5131201;27;20027;-59
2023/05/27 05:48:59;;;;;;;18.75;4.72;;;9.30;99.90;;;;;;5131579;27;20051;-60
2023/05/27 05:51:25;;;;;;;21.98;5.30;;;9.50;99.90;;;;;;5131090;27;20032;-59
2023/05/27 05:53:51;;;;;;;17.27;5.00;;;9.50;99.90;;;;;;5131529;27;20482;-59
2023/05/27 05:56:17;;;;;;;22.65;7.68;;;9.60;99.90;;;;;;5131439;27;20060;-59
2023/05/27 05:58:42;;;;;;;19.58;4.88;;;9.70;99.90;;;;;;5131200;27;20061;-59
2023/05/27 06:01:08;;;;;;;26.60;5.30;;;9.80;99.90;;;;;;5131318;27;20390;-57
2023/05/27 06:03:34;;;;;;;17.05;4.90;;;9.90;99.90;;;;;;5131069;27;20580;-58
2023/05/27 06:05:59;;;;;;;22.20;7.38;;;9.90;99.90;;;;;;5131023;27;20046;-59
2023/05/27 06:08:25;;;;;;;19.58;5.50;;;10.10;99.90;;;;;;5129563;27;20035;-61
2023/05/27 06:10:51;;;;;;;20.52;5.30;;;10.10;99.90;;;;;;5130733;27;20079;-59
2023/05/27 06:13:17;;;;;;;15.57;4.70;;;10.20;99.90;;;;;;5130655;27;20035;-58
2023/05/27 06:15:42;;;;;;;20.38;4.82;;;10.30;99.90;;;;;;5129739;27;20038;-59
2023/05/27 06:18:08;;;;;;;21.30;5.38;;;10.40;99.90;;;;;;5130665;27;20049;-59
2023/05/27 06:20:34;;;;;;;20.05;5.28;;;10.50;99.90;;;;;;5129207;28;20039;-59
2023/05/27 06:22:59;;;;;;;27.85;6.03;;;10.50;99.90;;;;;;5131000;28;20042;-58
2023/05/27 06:25:25;;;;;;;22.17;4.60;;;10.60;99.90;;;;;;5123552;27;20118;-60
2023/05/27 06:27:51;;;;;;;20.33;5.82;;;10.70;99.90;;;;;;5126171;27;20031;-58
2023/05/27 06:30:16;;;;;;;22.85;5.45;;;10.70;99.90;;;;;;5122955;27;20039;-59
2023/05/27 06:32:42;;;;;;;28.13;5.65;;;10.80;99.90;;;;;;5126716;27;20039;-59
2023/05/27 06:35:08;;;;;;;21.85;5.65;;;10.80;99.90;;;;;;5125438;27;20533;-60
2023/05/27 06:37:33;;;;;;;19.90;5.57;;;10.90;99.90;;;;;;5125550;27;20033;-59
2023/05/27 06:39:59;;;;;;;17.77;4.25;;;10.90;99.90;;;;;;5124939;27;20049;-58
2023/05/27 06:42:25;;;;;;;23.70;4.95;;;11.00;99.90;;;;;;5125603;27;20762;-59
2023/05/27 06:44:51;;;;;;;17.15;4.55;;;11.10;99.90;;;;;;5113780;27;20036;-60
2023/05/27 06:47:16;;;;;;;21.55;4.45;;;11.00;99.90;;;;;;5125800;27;20063;-59
2023/05/27 06:49:42;;;;;;;14.93;4.10;;;11.10;99.90;;;;;;5125145;27;21015;-59
2023/05/27 06:52:08;;;;;;;19.73;4.65;;;11.20;99.90;;;;;;5124868;27;20039;-58
2023/05/27 06:54:33;;;;;;;22.02;4.40;;;11.30;99.90;;;;;;5124554;27;20035;-57
2023/05/27 06:56:59;;;;;;;19.88;4.70;;;11.30;99.90;;;;;;5124455;27;20043;-58
2023/05/27 06:59:25;;;;;;;18.25;4.68;;;11.40;99.90;;;;;;5125091;27;20046;-59
2023/05/27 07:01:51;;;;;;;22.25;4.75;;;11.50;99.90;;;;;;5124920;27;20027;-59
2023/05/27 07:04:16;;;;;;;19.80;5.07;;;11.60;99.90;;;;;;5124979;27;20039;-61
2023/05/27 07:06:43;;;;;;;18.85;4.50;;;11.60;99.90;;;;;;5125225;27;20474;-59
2023/05/27 07:09:08;;;;;;;23.85;4.75;;;11.70;99.90;;;;;;5106937;27;20076;-60
2023/05/27 07:11:34;;;;;;;20.48;4.63;;;11.80;99.90;;;;;;5124935;27;20051;-60
2023/05/27 07:14:00;;;;;;;19.17;5.05;;;11.80;99.90;;;;;;5105330;27;20039;-59
2023/05/27 07:16:25;;;;;;;17.83;3.88;;;11.90;99.90;;;;;;5124750;27;20066;-60
2023/05/27 07:18:51;;;;;;;18.00;4.20;;;12.00;99.90;;;;;;5124692;27;20054;-59
2023/05/27 07:21:17;;;;;;;18.38;4.55;;;12.00;99.90;;;;;;5122432;27;20115;-60
2023/05/27 07:23:43;;;;;;;17.83;4.68;;;12.10;99.90;;;;;;5132052;27;20035;-59
2023/05/27 07:26:08;;;;;;;17.48;4.50;;;12.20;99.90;;;;;;5126291;27;20038;-59
2023/05/27 07:28:34;;;;;;;21.38;4.68;;;12.30;99.90;;;;;;5129679;27;20079;-59
2023/05/27 07:31:00;;;;;;;19.33;4.15;;;12.30;99.90;;;;;;5130798;27;20091;-59
2023/05/27 07:33:25;;;;;;;19.17;4.45;;;12.50;99.90;;;;;;5133703;27;20574;-58
2023/05/27 07:35:51;;;;;;;22.27;4.78;;;12.60;99.90;;;;;;5131626;27;20042;-58
2023/05/27 07:38:17;;;;;;;17.25;4.20;;;12.60;99.90;;;;;;5129783;27;20035;-60
2023/05/27 07:40:42;;;;;;;16.98;4.68;;;12.70;99.90;;;;;;5133870;27;20038;-58
2023/05/27 07:43:08;;;;;;;20.77;4.13;;;12.80;99.90;;;;;;5133190;27;20035;-59
2023/05/27 07:45:34;;;;;;;27.30;4.95;;;12.80;99.90;;;;;;5115476;27;20625;-59
2023/05/27 07:47:59;;;;;;;21.52;4.97;;;12.90;99.90;;;;;;5133637;27;20047;-60
2023/05/27 07:50:25;;;;;;;19.33;4.85;;;13.00;99.90;;;;;;5133989;27;20046;-58
2023/05/27 07:52:51;;;;;;;19.00;4.68;;;13.00;99.90;;;;;;5133736;27;20494;-59
2023/05/27 07:55:16;;;;;;;17.52;4.47;;;13.10;99.90;;;;;;5133383;27;20047;-60
2023/05/27 07:57:43;;;;;;;23.30;5.07;;;13.10;99.90;;;;;;5115271;27;20035;-59
2023/05/27 08:00:10;;;;;;;19.77;5.00;;;13.20;99.90;;;;;;5133572;27;20031;-60
2023/05/27 08:02:35;;;;;;;19.55;4.65;;;13.30;99.90;;;;;;5133160;27;20049;-60
2023/05/27 08:05:03;;;;;;;15.38;3.95;;;13.30;99.90;;;;;;5132946;27;20118;-60
2023/05/27 08:07:30;;;;;;;22.02;5.05;;;13.40;99.90;;;;;;5132880;27;20104;-60
2023/05/27 08:09:55;;;;;;;16.98;4.30;;;13.40;99.90;;;;;;5114845;27;20034;-60
2023/05/27 08:12:21;;;;;;;23.55;5.25;;;13.50;99.90;;;;;;5133673;27;20527;-60
2023/05/27 08:14:48;;;;;;;16.10;4.47;;;13.50;99.90;;;;;;5133388;27;20118;-58
2023/05/27 08:17:14;;;;;;;16.83;4.43;;;13.60;99.90;;;;;;5131578;27;20136;-59
2023/05/27 08:19:40;;;;;;;17.73;4.97;;;13.60;99.90;;;;;;5131816;27;20038;-59
2023/05/27 08:22:08;;;;;;;20.85;4.50;;;13.70;99.90;;;;;;5133194;27;20493;-59
2023/05/27 08:24:34;;;;;;;17.38;4.38;;;13.80;99.90;;;;;;5132933;27;20096;-59
2023/05/27 08:27:02;;;;;;;13.20;4.90;;;13.90;99.90;;;;;;5114176;27;20072;-58
2023/05/27 08:29:30;;;;;;;17.63;4.80;;;13.90;99.90;;;;;;5132886;27;20031;-59
2023/05/27 08:31:56;;;;;;;19.10;4.55;;;13.90;99.90;;;;;;5132889;27;20066;-59
2023/05/27 08:34:22;;;;;;;20.45;4.97;;;14.00;99.90;;;;;;5114024;27;20047;-61
2023/05/27 08:36:48;;;;;;;21.02;5.97;;;14.00;99.90;;;;;;5132447;27;20042;-60
2023/05/27 08:39:14;;;;;;;18.25;5.25;;;14.20;99.90;;;;;;5114583;27;20035;-59
2023/05/27 08:41:40;;;;;;;22.60;5.18;;;14.20;99.90;;;;;;5123263;27;20040;-58
2023/05/27 08:44:05;;;;;;;21.40;5.22;;;14.30;99.90;;;;;;5129983;27;20534;-59
2023/05/27 08:46:32;;;;;;;17.98;4.65;;;14.30;99.90;;;;;;5132275;27;20107;-59
2023/05/27 08:48:58;;;;;;;15.23;5.13;;;14.40;99.90;;;;;;5131166;27;20050;-59
2023/05/27 08:51:25;;;;;;;23.15;5.40;;;14.40;99.90;;;;;;5128167;27;20035;-59
2023/05/27 08:53:51;;;;;;;22.77;6.05;;;14.50;99.90;;;;;;5127387;27;20483;-58
2023/05/27 08:56:21;;;;;;;22.30;5.80;;;14.60;99.90;;;;;;5110749;27;20030;-59
2023/05/27 08:58:47;;;;;;;16.02;4.88;;;14.70;99.90;;;;;;5129548;27;20099;-56
2023/05/27 09:01:17;;;;;;;21.00;4.90;;;14.80;99.90;;;;;;5132289;27;20462;-57
2023/05/27 09:03:43;;;;;;;14.43;4.97;;;15.00;99.90;;;;;;5129923;27;20121;-59
2023/05/27 09:06:09;;;;;;;22.45;5.68;;;15.20;99.90;;;;;;5129612;27;20489;-59
2023/05/27 09:08:35;;;;;;;20.70;5.28;;;15.30;99.90;;;;;;5129764;27;20118;-58
2023/05/27 09:11:01;;;;;;;20.13;5.35;;;15.40;99.90;;;;;;5127550;27;20035;-58
2023/05/27 09:13:30;;;;;;;18.50;5.30;;;15.60;99.90;;;;;;5127393;27;20039;-58
2023/05/27 09:16:03;;;;;;;17.63;5.07;;;15.80;99.90;;;;;;5127669;27;20043;-60
2023/05/27 09:18:35;;;;;;;20.33;5.53;;;16.00;99.90;;;;;;5131512;27;20512;-60
2023/05/27 09:21:01;;;;;;;22.95;5.85;;;16.00;99.90;;;;;;5131783;27;20043;-57
2023/05/27 09:23:27;;;;;;;21.02;5.63;;;16.10;99.90;;;;;;5132614;27;20478;-61
2023/05/27 09:25:53;;;;;;;18.58;5.30;;;16.30;99.90;;;;;;5132359;27;20114;-60
2023/05/27 09:28:26;;;;;;;21.70;5.90;;;16.30;99.90;;;;;;5130282;27;20058;-60
2023/05/27 09:31:05;;;;;;;20.13;5.85;;;16.50;99.90;;;;;;5129555;27;20486;-61
2023/05/27 09:33:39;;;;;;;17.73;5.25;;;16.60;99.90;;;;;;5129634;27;20054;-60
2023/05/27 09:36:06;;;;;;;19.13;5.72;;;16.70;99.90;;;;;;5129984;27;20457;-59
2023/05/27 09:38:33;;;;;;;21.02;5.88;;;16.70;99.90;;;;;;5129924;27;20050;-60
2023/05/27 09:40:59;;;;;;;15.85;5.13;;;16.70;99.90;;;;;;5129804;27;20071;-60
2023/05/27 09:43:26;;;;;;;18.70;5.93;;;16.80;99.90;;;;;;5129453;27;20047;-59
2023/05/27 09:45:58;;;;;;;20.55;5.90;;;16.90;99.90;;;;;;5131549;27;20453;-60
2023/05/27 09:48:25;;;;;;;15.40;4.95;;;17.00;99.90;;;;;;5131018;27;20049;-60
2023/05/27 09:50:54;;;;;;;20.25;5.88;;;17.10;99.90;;;;;;5131032;27;20074;-60
2023/05/27 09:53:23;;;;;;;20.23;5.38;;;17.20;99.90;;;;;;5131526;27;20035;-60
2023/05/27 09:55:49;;;;;;;15.77;5.30;;;17.40;99.90;;;;;;5131506;27;20031;-60
2023/05/27 09:58:15;;;;;;;17.58;5.72;;;17.40;99.90;;;;;;5131286;27;20546;-58
2023/05/27 10:00:44;;;;;;;20.48;5.80;;;17.50;99.90;;;;;;5131027;27;20088;-58
2023/05/27 10:03:10;;;;;;;23.30;6.28;;;17.50;99.90;;;;;;5130984;27;20039;-59
2023/05/27 10:05:37;;;;;;;15.57;5.55;;;17.50;99.90;;;;;;5131248;27;20038;-57
2023/05/27 10:08:03;;;;;;;19.60;5.60;;;17.60;99.90;;;;;;5131228;27;20046;-59
2023/05/27 10:10:29;;;;;;;17.30;5.45;;;17.60;99.90;;;;;;5131115;27;20107;-60
2023/05/27 10:12:57;;;;;;;16.77;5.95;;;17.70;99.90;;;;;;5131381;27;20054;-58
2023/05/27 10:15:31;;;;;;;13.93;5.18;;;17.80;99.90;;;;;;5130495;27;20054;-58
2023/05/27 10:18:09;;;;;;;14.20;5.35;;;17.80;99.90;;;;;;5131025;27;20394;-60
2023/05/27 10:20:42;;;;;;;18.05;5.72;;;17.90;99.90;;;;;;5130191;28;20035;-62
2023/05/27 10:23:28;;;;;;;19.38;6.22;;;18.00;99.90;;;;;;5130447;28;20110;-60
2023/05/27 10:26:04;;;;;;;20.40;5.72;;;18.10;99.90;;;;;;5110435;28;20104;-60
2023/05/27 10:28:32;;;;;;;17.08;5.88;;;18.00;99.90;;;;;;5127642;28;20039;-60
2023/05/27 10:31:09;;;;;;;20.15;6.03;;;18.10;99.90;;;;;;5130886;28;20505;-58
2023/05/27 10:33:43;;;;;;;19.00;5.80;;;18.20;99.90;;;;;;5109015;28;20039;-61
2023/05/27 10:36:12;;;;;;;19.55;5.28;;;18.20;99.90;;;;;;5122595;28;20036;-60
2023/05/27 10:38:38;;;;;;;18.67;6.35;;;18.30;99.90;;;;;;5128529;28;20055;-59
2023/05/27 10:41:06;;;;;;;18.27;5.60;;;18.40;99.90;;;;;;5126990;28;20035;-58
2023/05/27 10:43:33;;;;;;;16.98;5.15;;;18.40;99.90;;;;;;5125431;28;20679;-61
2023/05/27 10:46:09;;;;;;;15.70;5.28;;;18.40;99.90;;;;;;5112542;28;20412;-60
2023/05/27 10:48:36;;;;;;;16.63;5.35;;;18.40;99.90;;;;;;5129950;28;20050;-59
2023/05/27 10:51:02;;;;;;;20.38;6.63;;;18.50;99.90;;;;;;5130078;28;20039;-59
2023/05/27 10:53:29;;;;;;;15.90;5.82;;;18.70;99.90;;;;;;5130949;28;20046;-59
2023/05/27 10:55:58;;;;;;;17.02;5.65;;;18.80;99.90;;;;;;5131438;28;20071;-60
2023/05/27 10:58:24;;;;;;;17.10;5.43;;;18.90;99.90;;;;;;5130995;28;20046;-60
2023/05/27 11:00:51;;;;;;;17.15;5.50;;;19.00;99.90;;;;;;5130876;28;20072;-61
2023/05/27 11:03:26;;;;;;;16.98;5.03;;;19.00;99.90;;;;;;5131071;28;20043;-61
2023/05/27 11:06:05;;;;;;;16.25;5.88;;;19.10;99.90;;;;;;5131272;28;20046;-59
2023/05/27 11:08:34;;;;;;;13.43;5.10;;;19.10;99.90;;;;;;5130740;28;20043;-59
2023/05/27 11:11:02;;;;;;;15.25;5.00;;;19.10;99.90;;;;;;5132123;27;20059;-58
2023/05/27 11:13:49;;;;;;;16.48;4.75;;;19.20;99.90;;;;;;5133613;27;20043;-59
2023/05/27 11:16:15;;;;;;;16.15;4.95;;;19.30;99.90;;;;;;5135020;27;20039;-61
2023/05/27 11:18:43;;;;;;;16.15;4.80;;;19.40;99.90;;;;;;5065596;27;20074;-59
2023/05/27 11:21:10;;;;;;;13.40;4.82;;;19.60;99.90;;;;;;5098961;27;20035;-61
2023/05/27 11:23:46;;;;;;;16.90;4.80;;;19.80;99.90;;;;;;5134725;27;20042;-59
2023/05/27 11:26:24;;;;;;;13.27;4.93;;;19.90;99.90;;;;;;5135041;27;20524;-60
2023/05/27 11:28:51;;;;;;;15.02;4.93;;;20.00;99.90;;;;;;5134922;27;20058;-60
2023/05/27 11:31:19;;;;;;;15.48;5.40;;;20.00;99.90;;;;;;5134701;27;20031;-61
2023/05/27 11:33:48;;;;;;;14.52;4.75;;;20.10;99.90;;;;;;5134663;27;20042;-61
2023/05/27 11:36:15;;;;;;;15.68;5.03;;;20.30;99.90;;;;;;5134302;27;20513;-61
2023/05/27 11:39:00;;;;;;;13.88;4.38;;;20.30;99.90;;;;;;5116176;27;20043;-61
2023/05/27 11:41:30;;;;;;;15.40;4.47;;;20.50;99.90;;;;;;5134967;27;20099;-61
2023/05/27 11:43:57;;;;;;;12.27;4.70;;;20.70;99.90;;;;;;5134006;27;20035;-63
2023/05/27 11:46:23;;;;;;;17.85;4.95;;;20.80;99.90;;;;;;5133950;27;20039;-60
2023/05/27 11:48:49;;;;;;;18.17;4.97;;;20.90;99.90;;;;;;5133975;27;20118;-62
2023/05/27 11:51:15;;;;;;;18.23;4.85;;;21.10;99.90;;;;;;5134309;27;20110;-61
2023/05/27 11:53:45;;;;;;;17.02;4.72;;;21.20;99.90;;;;;;5134246;27;20422;-62
2023/05/27 11:56:10;;;;;;;14.27;4.80;;;21.10;99.60;;;;;;5133988;27;20108;-61
2023/05/27 11:58:36;;;;;;;17.75;4.97;;;21.20;99.70;;;;;;5134076;27;20419;-62
2023/05/27 12:01:04;;;;;;;16.45;5.05;;;21.30;99.80;;;;;;5133984;27;20091;-62
2023/05/27 12:03:30;;;;;;;14.60;4.57;;;21.50;99.30;;;;;;5132959;27;20402;-62
2023/05/27 12:05:55;;;;;;;14.40;4.68;;;21.60;99.20;;;;;;5129266;27;20130;-62
2023/05/27 12:08:21;;;;;;;14.50;4.78;;;21.70;99.20;;;;;;5127410;27;20062;-64
2023/05/27 12:10:50;;;;;;;15.68;4.22;;;21.80;98.90;;;;;;5129842;27;20035;-61
2023/05/27 12:13:16;;;;;;;14.40;4.65;;;21.90;98.50;;;;;;5124078;27;20052;-60
2023/05/27 12:15:41;;;;;;;13.15;5.30;;;22.00;98.30;;;;;;5129890;27;20038;-59
2023/05/27 12:18:07;;;;;;;13.60;4.95;;;22.10;97.70;;;;;;5133814;27;20039;-61
2023/05/27 12:20:33;;;;;;;15.10;5.00;;;22.20;97.70;;;;;;5115190;27;20034;-61
2023/05/27 12:22:59;;;;;;;14.80;4.70;;;22.30;98.00;;;;;;5132352;27;20043;-62
2023/05/27 12:25:25;;;;;;;16.08;4.80;;;22.30;97.80;;;;;;5132378;27;20046;-61
2023/05/27 12:27:51;;;;;;;17.27;4.95;;;22.40;97.40;;;;;;5133735;27;20031;-60
2023/05/27 12:30:16;;;;;;;15.32;5.05;;;22.50;96.60;;;;;;5133582;27;20032;-60
2023/05/27 12:32:42;;;;;;;14.32;4.60;;;22.60;96.10;;;;;;5133589;27;20451;-61
2023/05/27 12:35:08;;;;;;;14.05;4.95;;;22.60;96.00;;;;;;5133014;27;20034;-61
2023/05/27 12:37:34;;;;;;;19.55;5.43;;;22.60;96.20;;;;;;5133149;27;20462;-62
2023/05/27 12:39:59;;;;;;;14.35;4.60;;;22.70;96.80;;;;;;5133351;27;20039;-60
2023/05/27 12:42:25;;;;;;;13.27;5.00;;;22.80;96.30;;;;;;5133099;27;20126;-61
2023/05/27 12:44:51;;;;;;;14.50;4.60;;;23.00;96.20;;;;;;5132751;27;20047;-59